Time;durP1;ratioP1;P1;durP2;ratioP2;P2;SDS_P1;SDS_P2;PMS_P1;PMS_P2;Temp;Humidity;BMP_temperature;BMP_pressure;BME280_temperature;BME280_humidity;BME280_pressure;Samples;Min_cycle;Max_cycle;Signal;HPM_P1;HPM_P2
2023/01/12 00:01:10;;;;;;;11.52;7.55;;;;;;;-1.61;100.00;100561.38;5005095;28;20041;-76
2023/01/12 00:03:36;;;;;;;15.63;8.10;;;;;;;-0.95;100.00;100686.56;5003086;28;20056;-76
2023/01/12 00:06:06;;;;;;;13.02;6.97;;;;;;;-1.17;100.00;100624.47;4996818;28;20549;-75
2023/01/12 00:08:33;;;;;;;11.52;5.82;;;;;;;-1.74;100.00;100567.56;4998042;28;20053;-77
2023/01/12 00:10:59;;;;;;;10.13;6.47;;;;;;;-0.83;100.00;100694.03;5003048;28;20046;-77
2023/01/12 00:13:24;;;;;;;11.88;5.25;;;;;;;-1.56;100.00;100576.22;4997736;28;20046;-77
2023/01/12 00:18:34;;;;;;;14.23;8.40;;;;;;;-1.70;100.00;100539.50;4996723;28;20104;-76
2023/01/12 00:20:59;;;;;;;15.38;7.65;;;;;;;-1.71;100.00;100555.75;5006491;28;20042;-77
2023/01/12 00:23:25;;;;;;;15.55;7.03;;;;;;;-1.59;100.00;100568.34;5004657;28;20053;-77
2023/01/12 00:25:51;;;;;;;12.35;5.05;;;;;;;-1.04;100.00;100695.53;5002743;28;20061;-76
2023/01/12 00:28:17;;;;;;;14.07;6.93;;;;;;;-1.08;100.00;100664.47;5003851;28;20038;-76
2023/01/12 00:30:43;;;;;;;15.75;6.43;;;;;;;-0.86;100.00;100717.06;5008853;28;20036;-76
2023/01/12 00:33:08;;;;;;;10.77;5.78;;;;;;;-0.87;100.00;100712.69;5003136;28;20046;-76
2023/01/12 00:35:35;;;;;;;11.55;7.78;;;;;;;-1.67;100.00;100564.50;5006722;28;20041;-76
2023/01/12 00:38:00;;;;;;;16.10;8.07;;;;;;;-1.54;100.00;100591.75;5003146;28;20050;-76
2023/01/12 00:40:26;;;;;;;18.70;8.13;;;;;;;-1.73;100.00;100561.63;4999259;28;20521;-76
2023/01/12 00:45:36;;;;;;;14.15;6.25;;;;;;;-0.86;100.00;100702.50;5006305;28;20201;-75
2023/01/12 00:48:02;;;;;;;25.35;9.13;;;;;;;-1.56;100.00;100575.34;5005362;28;20046;-76
2023/01/12 00:50:27;;;;;;;13.35;7.65;;;;;;;-1.49;100.00;100573.16;5007400;28;20053;-77
2023/01/12 00:52:53;;;;;;;22.85;7.13;;;;;;;-0.79;100.00;100728.56;5016481;28;20046;-77
2023/01/12 00:55:18;;;;;;;16.20;6.50;;;;;;;-0.70;100.00;100711.00;5002192;28;20052;-78
2023/01/12 00:57:44;;;;;;;15.13;7.53;;;;;;;-0.85;100.00;100693.94;5002371;28;20378;-78
2023/01/12 01:00:10;;;;;;;28.52;9.02;;;;;;;-0.77;100.00;100701.16;5010430;28;20136;-78
2023/01/12 01:02:35;;;;;;;20.20;11.10;;;;;;;-0.91;100.00;100685.94;5011245;28;20056;-77
2023/01/12 01:05:01;;;;;;;15.48;6.80;;;;;;;-1.35;100.00;100580.69;5003342;28;20808;-77
2023/01/12 01:07:26;;;;;;;15.27;7.80;;;;;;;-1.06;100.00;100644.81;5007103;28;20041;-76
2023/01/12 01:09:52;;;;;;;13.80;8.13;;;;;;;-0.87;100.00;100672.41;5008391;28;20434;-76
2023/01/12 01:12:17;;;;;;;13.90;7.10;;;;;;;-0.92;100.00;100667.81;5004473;28;20045;-75
2023/01/12 01:14:43;;;;;;;19.23;9.15;;;;;;;-0.70;100.00;100675.81;5002749;28;20052;-76
2023/01/12 01:17:08;;;;;;;16.35;7.10;;;;;;;-0.74;100.00;100685.88;5005045;28;20044;-77
2023/01/12 01:19:34;;;;;;;16.77;8.73;;;;;;;-1.56;100.00;100539.31;5012432;28;20054;-78
2023/01/12 01:21:59;;;;;;;13.95;8.18;;;;;;;-0.74;100.00;100701.34;5007612;28;20034;-78
2023/01/12 01:24:25;;;;;;;11.68;6.85;;;;;;;-0.78;100.00;100671.06;5004882;28;20160;-79
2023/01/12 01:26:50;;;;;;;11.82;5.65;;;;;;;-0.82;100.00;100693.25;5002433;28;20730;-77
2023/01/12 01:29:16;;;;;;;21.27;10.02;;;;;;;-0.60;100.00;100702.91;5005228;28;20050;-75
2023/01/12 01:31:42;;;;;;;15.05;6.80;;;;;;;-0.47;100.00;100710.44;5010738;28;20077;-78
2023/01/12 01:34:07;;;;;;;10.88;5.30;;;;;;;-1.21;100.00;100609.72;5012270;28;20038;-80
2023/01/12 01:36:33;;;;;;;16.10;8.88;;;;;;;-1.46;100.00;100587.88;5018193;28;20061;-75
2023/01/12 01:38:58;;;;;;;15.40;7.93;;;;;;;-1.34;100.00;100613.34;5015420;28;20050;-77
2023/01/12 01:41:28;;;;;;;12.18;6.30;;;;;;;-1.35;100.00;100615.03;5010059;28;23617;-78
2023/01/12 01:44:16;;;;;;;10.88;5.90;;;;;;;-1.57;100.00;100564.19;5026412;28;20046;-75
2023/01/12 01:46:49;;;;;;;19.40;8.20;;;;;;;-0.70;100.00;100703.28;5024549;28;20057;-76
2023/01/12 01:49:44;;;;;;;11.95;7.05;;;;;;;-0.81;100.00;100731.06;5030382;28;20033;-75
2023/01/12 01:52:18;;;;;;;19.23;9.52;;;;;;;-0.87;100.00;100703.31;5022270;28;20084;-78
2023/01/12 01:55:10;;;;;;;12.95;7.07;;;;;;;-0.76;100.00;100705.53;5021315;28;20052;-75
2023/01/12 01:57:48;;;;;;;16.40;6.90;;;;;;;-1.57;100.00;100579.63;5029668;28;20038;-75
2023/01/12 02:00:13;;;;;;;13.05;8.05;;;;;;;-0.83;100.00;100712.06;5024355;28;20049;-76
2023/01/12 02:02:42;;;;;;;9.57;5.70;;;;;;;-0.77;100.00;100689.19;5027491;28;20052;-76
2023/01/12 02:05:10;;;;;;;10.05;7.80;;;;;;;-1.03;100.00;100681.81;5025652;28;20069;-78
2023/01/12 02:07:36;;;;;;;19.88;7.90;;;;;;;-0.72;100.00;100700.59;5026537;28;20042;-78
2023/01/12 02:10:02;;;;;;;15.05;7.85;;;;;;;-0.83;100.00;100696.59;5027446;28;20038;-77
2023/01/12 02:18:32;;;;;;;9.73;5.53;;;;;;;-1.44;100.00;100590.53;5022523;28;20052;-76
2023/01/12 02:21:09;;;;;;;11.13;6.88;;;;;;;-0.74;100.00;100706.50;5025053;28;20050;-76
2023/01/12 02:23:47;;;;;;;14.30;7.35;;;;;;;-0.75;100.00;100699.56;5026913;28;20041;-78
2023/01/12 02:26:46;;;;;;;12.57;6.28;;;;;;;-0.85;100.00;100703.38;5024434;28;20046;-76
2023/01/12 02:29:24;;;;;;;16.55;7.13;;;;;;;-0.75;100.00;100694.41;5026688;28;20038;-76
2023/01/12 02:32:13;;;;;;;14.43;6.85;;;;;;;-2.00;100.00;100483.94;5026225;28;20041;-75
2023/01/12 02:35:01;;;;;;;9.40;5.35;;;;;;;-0.81;100.00;100697.56;5023008;28;20080;-78
2023/01/12 02:37:31;;;;;;;12.07;6.20;;;;;;;-0.94;100.00;100664.25;5001392;28;20050;-77
2023/01/12 02:40:11;;;;;;;16.35;6.90;;;;;;;-0.82;100.00;100688.09;5009197;28;20073;-76
2023/01/12 02:42:46;;;;;;;8.15;4.85;;;;;;;-0.95;100.00;100650.50;5016589;28;20037;-76
2023/01/12 02:45:30;;;;;;;11.80;6.70;;;;;;;-0.77;100.00;100683.13;5011183;28;20862;-76
2023/01/12 02:48:13;;;;;;;14.10;5.68;;;;;;;-0.94;100.00;100665.16;5017150;28;20045;-77
2023/01/12 02:50:50;;;;;;;8.85;5.93;;;;;;;-1.75;100.00;100510.09;5016714;28;20062;-77
2023/01/12 02:53:41;;;;;;;9.38;5.88;;;;;;;-1.56;100.00;100537.63;5019727;28;20061;-77
2023/01/12 02:56:09;;;;;;;10.60;4.53;;;;;;;-0.82;100.00;100651.13;5009644;28;20068;-77
2023/01/12 02:58:40;;;;;;;12.65;6.68;;;;;;;-1.05;100.00;100614.81;5001460;28;20060;-77
2023/01/12 03:01:08;;;;;;;12.60;6.20;;;;;;;-1.63;100.00;100514.97;5003542;28;20125;-79
2023/01/12 03:03:38;;;;;;;9.50;5.43;;;;;;;-0.73;100.00;100675.63;5004475;28;20478;-76
2023/01/12 03:06:05;;;;;;;12.27;6.03;;;;;;;-0.80;100.00;100658.09;5002581;28;20065;-76
2023/01/12 03:08:33;;;;;;;9.25;5.22;;;;;;;-0.92;100.00;100627.47;5007239;28;20042;-77
2023/01/12 03:11:22;;;;;;;10.07;6.25;;;;;;;-0.78;100.00;100655.63;5000133;28;20046;-78
2023/01/12 03:13:53;;;;;;;12.20;6.22;;;;;;;-1.59;100.00;100522.06;4999935;28;20123;-76
2023/01/12 03:16:25;;;;;;;10.10;5.35;;;;;;;-0.69;100.00;100659.53;5000083;28;20053;-76
2023/01/12 03:19:00;;;;;;;7.30;4.63;;;;;;;-0.61;100.00;100622.94;5006225;28;20155;-78
2023/01/12 03:21:33;;;;;;;10.35;5.28;;;;;;;-0.56;100.00;100648.13;5006097;28;20045;-76
2023/01/12 03:24:04;;;;;;;;;;;;;;;-0.74;100.00;100639.50;5007744;28;20041;-75
2023/01/12 03:26:33;;;;;;;11.13;6.30;;;;;;;-1.35;100.00;100542.09;4999464;28;19960;-77
2023/01/12 03:29:10;;;;;;;9.27;5.38;;;;;;;-1.62;100.00;100480.72;5004470;28;20117;-77
2023/01/12 03:31:36;;;;;;;7.50;4.10;;;;;;;-0.74;100.00;100596.59;5003773;28;20041;-79
2023/01/12 03:34:03;;;;;;;12.48;5.75;;;;;;;-0.67;100.00;100639.88;5002897;28;20048;-79
2023/01/12 03:36:54;;;;;;;11.95;6.75;;;;;;;-0.70;100.00;100638.84;5002569;28;20093;-78
2023/01/12 03:39:44;;;;;;;16.48;6.70;;;;;;;-0.64;100.00;100634.84;4999009;28;20062;-79
2023/01/12 03:42:19;;;;;;;8.93;3.65;;;;;;;-0.65;100.00;100625.38;5001361;28;20333;-76
2023/01/12 03:45:05;;;;;;;10.48;5.93;;;;;;;-0.68;100.00;100643.28;5003333;28;20057;-76
2023/01/12 03:47:32;;;;;;;13.15;6.13;;;;;;;-1.23;100.00;100524.66;5004600;28;20068;-77
2023/01/12 03:50:13;;;;;;;15.13;9.20;;;;;;;-0.54;100.00;100651.69;5001475;28;20042;-78
2023/01/12 03:52:39;;;;;;;16.77;9.85;;;;;;;-1.45;100.00;100526.97;4997818;28;20098;-76
2023/01/12 03:55:09;;;;;;;17.95;11.65;;;;;;;-1.23;100.00;100549.53;4998017;28;20034;-76
2023/01/12 03:57:37;;;;;;;12.13;7.32;;;;;;;-0.64;100.00;100627.13;5001545;28;20037;-77
2023/01/12 04:00:06;;;;;;;9.82;5.65;;;;;;;-0.86;100.00;100559.94;4999338;28;20045;-76
2023/01/12 04:02:32;;;;;;;11.95;7.40;;;;;;;-0.36;100.00;100643.91;5003040;28;20045;-76
2023/01/12 04:04:58;;;;;;;10.82;6.22;;;;;;;-0.61;100.00;100648.72;5002778;28;20046;-78
2023/01/12 04:07:23;;;;;;;9.63;5.07;;;;;;;-1.50;100.00;100509.66;4995669;28;20061;-75
2023/01/12 04:09:49;;;;;;;13.18;6.20;;;;;;;-1.54;100.00;100525.72;4998637;28;20037;-76
2023/01/12 04:12:14;;;;;;;10.48;5.57;;;;;;;-0.70;100.00;100649.16;4996832;28;20577;-75
2023/01/12 04:14:43;;;;;;;16.58;8.48;;;;;;;-0.94;100.00;100623.94;5000740;28;20383;-77
2023/01/12 04:17:12;;;;;;;14.32;7.75;;;;;;;-0.62;100.00;100652.97;4999291;28;20053;-75
2023/01/12 04:19:38;;;;;;;9.40;6.28;;;;;;;-0.76;100.00;100633.41;5000930;28;20054;-78
2023/01/12 04:24:49;;;;;;;9.15;7.25;;;;;;;-1.51;100.00;100527.56;5001708;28;20072;-75
2023/01/12 04:27:15;;;;;;;11.55;6.72;;;;;;;-0.89;100.00;100637.94;5002927;28;20078;-77
2023/01/12 04:29:41;;;;;;;10.98;6.20;;;;;;;-1.15;100.00;100586.81;5000002;28;20113;-77
2023/01/12 04:32:06;;;;;;;10.90;6.25;;;;;;;-0.72;100.00;100646.50;5003861;28;20124;-75
2023/01/12 04:34:32;;;;;;;9.90;4.80;;;;;;;-0.89;100.00;100626.75;5002062;28;20398;-76
2023/01/12 04:36:59;;;;;;;13.07;7.40;;;;;;;-1.44;100.00;100519.34;4999030;28;20060;-76
2023/01/12 04:39:24;;;;;;;11.32;6.13;;;;;;;-1.00;100.00;100615.06;5007162;28;20044;-75
2023/01/12 04:41:49;;;;;;;18.17;8.68;;;;;;;-0.70;100.00;100647.47;5001836;28;20054;-77
2023/01/12 04:44:15;;;;;;;16.38;8.02;;;;;;;-0.66;100.00;100640.75;5008363;28;20494;-76
2023/01/12 04:46:40;;;;;;;12.95;7.90;;;;;;;-0.56;100.00;100648.13;4999676;28;20461;-76
2023/01/12 04:49:06;;;;;;;13.85;6.93;;;;;;;-0.74;100.00;100632.66;5002317;28;20041;-76
2023/01/12 04:51:31;;;;;;;13.18;6.88;;;;;;;-0.41;100.00;100652.25;5004052;28;20034;-76
2023/01/12 04:53:57;;;;;;;19.08;8.55;;;;;;;-1.06;100.00;100585.59;5006710;28;20409;-75
2023/01/12 04:56:22;;;;;;;14.68;7.18;;;;;;;-1.30;100.00;100533.78;5000575;28;20764;-75
2023/01/12 04:58:48;;;;;;;14.55;7.28;;;;;;;-0.53;100.00;100658.59;5004362;28;20042;-78
2023/01/12 05:01:18;;;;;;;34.65;6.65;;;;;;;-0.28;100.00;100659.75;5006927;28;20037;-78
2023/01/12 05:03:44;;;;;;;19.35;8.23;;;;;;;-0.97;100.00;100514.75;5003123;28;20044;-80
2023/01/12 05:06:11;;;;;;;15.15;8.55;;;;;;;-0.86;100.00;100606.31;5005455;28;20042;-79
2023/01/12 05:11:27;;;;;;;16.75;7.72;;;;;;;-1.00;100.00;100514.63;5008839;28;20108;-78
2023/01/12 05:13:53;;;;;;;13.50;7.90;;;;;;;-0.27;100.00;100657.25;5010258;28;20042;-80
2023/01/12 05:16:18;;;;;;;16.58;7.20;;;;;;;-1.09;100.00;100558.81;5003946;28;20502;-80
2023/01/12 05:18:44;;;;;;;18.02;8.27;;;;;;;-1.09;100.00;100531.38;5008402;28;20084;-79
2023/01/12 05:21:11;;;;;;;12.32;7.55;;;;;;;-0.71;100.00;100545.19;5002900;28;20104;-78
2023/01/12 05:23:36;;;;;;;27.85;8.88;;;;;;;-0.11;100.00;100638.22;5003954;28;20054;-78
2023/01/12 05:26:05;;;;;;;17.05;9.68;;;;;;;-0.08;100.00;100673.59;5000632;28;20395;-79
2023/01/12 05:28:31;;;;;;;21.90;9.10;;;;;;;-0.37;100.00;100680.84;5009045;28;20141;-79
2023/01/12 05:31:08;;;;;;;11.68;6.43;;;;;;;-0.26;100.00;100643.56;5003229;28;20051;-77
2023/01/12 05:33:35;;;;;;;10.45;6.65;;;;;;;-0.01;100.00;100658.47;5008148;28;20049;-79
2023/01/12 05:36:15;;;;;;;10.82;7.10;;;;;;;0.09;100.00;100661.47;5003922;28;20164;-77
2023/01/12 05:38:40;;;;;;;17.50;7.53;;;;;;;-0.37;100.00;100685.13;5005594;28;20103;-75
2023/01/12 05:41:09;;;;;;;9.98;6.95;;;;;;;-0.53;100.00;100604.47;5003025;28;20249;-77
2023/01/12 05:43:49;;;;;;;12.52;7.20;;;;;;;-0.13;100.00;100696.59;5011053;28;20088;-76
2023/01/12 05:46:19;;;;;;;12.45;8.32;;;;;;;0.23;100.00;100705.97;4998420;28;20041;-76
2023/01/12 05:48:45;;;;;;;14.77;6.72;;;;;;;-0.55;100.00;100590.63;5006879;28;20037;-78
2023/01/12 05:51:11;;;;;;;12.23;7.78;;;;;;;0.30;100.00;100720.91;5005710;28;20180;-75
2023/01/12 05:53:37;;;;;;;17.90;9.10;;;;;;;0.25;100.00;100696.59;5003266;28;20050;-76
2023/01/12 05:56:14;;;;;;;11.25;6.50;;;;;;;-0.30;100.00;100594.38;5007709;28;20444;-76
2023/01/12 05:58:39;;;;;;;12.00;8.60;;;;;;;0.16;100.00;100668.69;5006101;28;20509;-78
2023/01/12 06:01:07;;;;;;;11.20;7.28;;;;;;;-0.14;100.00;100614.88;5006392;28;20030;-76
2023/01/12 06:03:32;;;;;;;12.50;7.30;;;;;;;-0.15;100.00;100674.13;5006586;28;20418;-76
2023/01/12 06:05:58;;;;;;;20.52;8.70;;;;;;;-0.38;100.00;100603.41;5011736;28;20136;-76
2023/01/12 06:08:24;;;;;;;14.27;8.27;;;;;;;-0.16;100.00;100634.56;5003929;28;20104;-78
2023/01/12 06:10:50;;;;;;;18.92;6.70;;;;;;;-0.15;100.00;100636.31;5001277;28;20072;-76
2023/01/12 06:16:04;;;;;;;16.02;8.27;;;;;;;-0.32;100.00;100630.38;5002095;28;20457;-76
2023/01/12 06:18:37;;;;;;;14.02;7.75;;;;;;;-0.74;100.00;100666.16;5004980;28;20505;-76
2023/01/12 06:21:05;;;;;;;21.07;6.97;;;;;;;-0.40;100.00;100762.28;5001911;28;20080;-77
2023/01/12 06:23:31;;;;;;;11.88;7.95;;;;;;;-0.23;100.00;100746.84;5003090;28;20456;-76
2023/01/12 06:26:00;;;;;;;11.30;7.60;;;;;;;-0.37;100.00;100741.84;5002492;28;20057;-78
2023/01/12 06:28:26;;;;;;;13.38;9.00;;;;;;;-0.44;100.00;100745.78;5003299;28;20118;-79
2023/01/12 06:30:57;;;;;;;12.52;7.53;;;;;;;-0.41;100.00;100740.78;5002442;28;20033;-76
2023/01/12 06:33:23;;;;;;;13.88;7.80;;;;;;;-0.92;100.00;100670.38;5000326;28;20132;-76
2023/01/12 06:35:48;;;;;;;15.02;10.30;;;;;;;-1.07;100.00;100619.00;5000881;28;20064;-75
2023/01/12 06:38:14;;;;;;;14.30;7.82;;;;;;;-0.62;100.00;100719.97;5002586;28;20451;-76
2023/01/12 06:40:40;;;;;;;12.80;6.93;;;;;;;-1.01;100.00;100651.88;5002403;28;20120;-76
2023/01/12 06:43:05;;;;;;;12.20;8.20;;;;;;;-0.65;100.00;100691.50;5001180;28;20113;-77
2023/01/12 06:45:31;;;;;;;15.55;9.70;;;;;;;0.04;100.00;100750.66;5007552;28;20942;-76
2023/01/12 06:47:57;;;;;;;18.63;9.55;;;;;;;-1.12;100.00;100630.78;5005004;28;20042;-76
2023/01/12 06:50:23;;;;;;;20.33;10.57;;;;;;;-1.27;100.00;100629.16;5004495;28;20049;-76
2023/01/12 06:52:49;;;;;;;14.07;8.85;;;;;;;-0.64;100.00;100771.44;5001255;28;20049;-75
2023/01/12 06:55:15;;;;;;;22.55;12.82;;;;;;;-0.49;100.00;100767.88;4994793;28;20049;-75
2023/01/12 06:57:40;;;;;;;35.83;12.88;;;;;;;-0.91;100.00;100618.09;5022210;28;20030;-74
2023/01/12 07:00:07;;;;;;;15.70;10.52;;;;;;;-0.35;100.00;100781.44;5006776;28;20158;-75
2023/01/12 07:02:33;;;;;;;13.25;8.60;;;;;;;-0.46;100.00;100763.75;5010470;28;20050;-75
2023/01/12 07:04:58;;;;;;;20.10;9.93;;;;;;;-0.43;100.00;100765.59;5010691;28;20042;-75
2023/01/12 07:07:23;;;;;;;16.75;10.65;;;;;;;-1.28;100.00;100640.28;5001772;28;20081;-76
2023/01/12 07:09:49;;;;;;;19.30;9.77;;;;;;;-0.56;100.00;100766.69;5005876;28;20577;-76
2023/01/12 07:12:14;;;;;;;22.33;10.75;;;;;;;-0.59;100.00;100760.47;5006341;28;20557;-76
2023/01/12 07:14:40;;;;;;;18.85;12.15;;;;;;;-1.36;100.00;100622.66;4999094;28;20070;-77
2023/01/12 07:17:05;;;;;;;23.10;12.10;;;;;;;-0.70;100.00;100731.63;5007584;28;20058;-76
2023/01/12 07:19:31;;;;;;;18.20;10.95;;;;;;;-0.73;100.00;100654.16;5000251;28;20491;-74
2023/01/12 07:21:56;;;;;;;35.90;16.35;;;;;;;-0.38;100.00;100753.81;5003758;28;20030;-75
2023/01/12 07:24:22;;;;;;;19.77;11.73;;;;;;;-1.19;100.00;100657.91;5019703;28;20049;-75
2023/01/12 07:26:52;;;;;;;15.35;11.10;;;;;;;-0.58;100.00;100765.72;4994937;28;20038;-75
2023/01/12 07:29:18;;;;;;;20.52;9.77;;;;;;;-0.91;100.00;100679.91;4999344;28;20269;-75
2023/01/12 07:31:44;;;;;;;23.67;12.48;;;;;;;-0.18;100.00;100748.75;5010965;28;20642;-75
2023/01/12 07:34:10;;;;;;;27.48;12.18;;;;;;;0.18;100.00;100772.84;5008627;28;20042;-76
2023/01/12 07:36:36;;;;;;;18.30;10.98;;;;;;;0.08;100.00;100732.81;5002761;28;20056;-75
2023/01/12 07:39:01;;;;;;;17.23;10.50;;;;;;;0.31;100.00;100782.06;5002741;28;20049;-75
2023/01/12 07:44:11;;;;;;;10.75;7.47;;;;;;;0.02;100.00;100701.56;5000164;28;20064;-78
2023/01/12 07:46:36;;;;;;;16.95;8.88;;;;;;;-0.37;100.00;100647.31;5007311;28;20421;-76
2023/01/12 07:49:02;;;;;;;22.25;11.45;;;;;;;0.16;100.00;100731.50;4994581;28;20030;-78
2023/01/12 07:51:28;;;;;;;18.70;8.55;;;;;;;0.64;100.00;100795.66;5003791;28;20018;-78
2023/01/12 07:53:54;;;;;;;15.65;9.48;;;;;;;-0.15;100.00;100671.53;5005573;28;20073;-76
2023/01/12 07:56:19;;;;;;;21.00;9.95;;;;;;;0.24;100.00;100817.00;5006981;28;20077;-76
2023/01/12 07:58:49;;;;;;;14.57;8.05;;;;;;;0.09;100.00;100705.31;5004033;28;20046;-75
2023/01/12 08:01:15;;;;;;;12.68;7.97;;;;;;;-0.17;100.00;100684.34;5001802;28;20037;-76
2023/01/12 08:03:40;;;;;;;17.15;9.57;;;;;;;0.69;100.00;100808.78;5012682;28;20033;-75
2023/01/12 08:06:06;;;;;;;16.90;8.65;;;;;;;0.07;100.00;100691.47;5001517;28;20195;-76
2023/01/12 08:08:32;;;;;;;19.27;10.65;;;;;;;0.71;100.00;100799.41;4995716;28;20046;-77
2023/01/12 08:11:05;;;;;;;15.57;9.77;;;;;;;0.31;100.00;100725.28;5005071;28;20420;-75
2023/01/12 08:13:32;;;;;;;14.80;9.77;;;;;;;0.08;100.00;100688.09;5003642;28;20046;-76
2023/01/12 08:16:05;;;;;;;14.20;8.35;;;;;;;0.19;100.00;100700.69;5007267;28;20351;-76
2023/01/12 08:18:36;;;;;;;12.05;8.73;;;;;;;0.97;100.00;100834.16;5006944;28;20042;-77
2023/01/12 08:21:10;;;;;;;14.15;9.32;;;;;;;0.37;100.00;100733.28;5002830;28;20142;-75
2023/01/12 08:23:43;;;;;;;14.07;9.00;;;;;;;0.99;100.00;100845.47;5008747;28;20057;-76
2023/01/12 08:26:29;;;;;;;18.23;10.70;;;;;;;0.82;100.00;100811.13;5001497;28;20115;-76
2023/01/12 08:29:02;;;;;;;15.88;10.38;;;;;;;1.02;100.00;100845.59;4999176;28;20076;-76
2023/01/12 08:31:30;;;;;;;25.20;8.38;;;;;;;0.08;100.00;100726.78;5008440;28;20050;-77
2023/01/12 08:33:56;;;;;;;18.70;10.40;;;;;;;-0.54;100.00;100715.19;5007019;28;20058;-76
2023/01/12 08:36:22;;;;;;;18.00;10.48;;;;;;;0.18;100.00;100853.72;4998481;28;20050;-77
2023/01/12 08:38:47;;;;;;;19.73;11.75;;;;;;;-0.20;100.00;100734.91;5000191;28;20041;-76
2023/01/12 08:41:31;;;;;;;17.65;12.93;;;;;;;-0.07;100.00;100732.09;4999161;28;20057;-77
2023/01/12 08:44:03;;;;;;;;;;;;;;;0.95;100.00;100859.94;5006438;28;20060;-76
2023/01/12 08:46:50;;;;;;;18.83;9.38;;;;;;;0.40;100.00;100859.94;5005862;28;19925;-76
2023/01/12 08:49:18;;;;;;;21.52;9.93;;;;;;;-0.32;100.00;100767.00;5005626;28;20045;-78
2023/01/12 08:51:44;;;;;;;15.90;10.60;;;;;;;0.45;100.00;100873.06;5011015;28;20087;-77
2023/01/12 08:54:11;;;;;;;23.40;10.80;;;;;;;0.43;100.00;100854.03;5008375;28;20422;-76
2023/01/12 08:56:36;;;;;;;20.50;10.55;;;;;;;0.17;100.00;100851.06;5003048;28;20093;-77
2023/01/12 08:59:03;;;;;;;23.48;12.88;;;;;;;-0.05;100.00;100837.13;5008137;28;20658;-76
2023/01/12 09:01:29;;;;;;;17.63;11.07;;;;;;;0.44;100.00;100835.13;5003955;28;20073;-77
2023/01/12 09:03:55;;;;;;;34.72;12.73;;;;;;;0.08;100.00;100761.22;5010947;28;20545;-79
2023/01/12 09:06:41;;;;;;;17.15;10.27;;;;;;;0.01;100.00;100735.94;5003976;28;20466;-77
2023/01/12 09:09:10;;;;;;;32.28;19.05;;;;;;;0.69;100.00;100887.13;5004179;28;20065;-78
2023/01/12 09:11:37;;;;;;;28.08;16.52;;;;;;;-0.51;100.00;100782.38;5008588;28;20065;-78
2023/01/12 09:14:03;;;;;;;18.38;13.80;;;;;;;-0.01;100.00;100877.72;5006840;28;20065;-77
2023/01/12 09:16:30;;;;;;;20.70;12.23;;;;;;;-0.76;100.00;100741.59;5002033;28;20042;-76
2023/01/12 09:18:56;;;;;;;27.67;12.48;;;;;;;-0.26;100.00;100777.66;5005338;28;20037;-78
2023/01/12 09:21:24;;;;;;;17.50;10.90;;;;;;;0.67;100.00;100870.69;4997227;28;20770;-77
2023/01/12 09:23:51;;;;;;;23.63;13.20;;;;;;;0.60;100.00;100847.97;5001698;28;20153;-77
2023/01/12 09:26:25;;;;;;;25.55;13.15;;;;;;;-0.59;100.00;100752.75;5005810;28;20046;-77
2023/01/12 09:28:51;;;;;;;23.10;14.57;;;;;;;-0.77;100.00;100724.34;5000620;28;20052;-75
2023/01/12 09:31:19;;;;;;;17.15;9.82;;;;;;;-0.74;100.00;100740.88;4994295;28;20038;-78
2023/01/12 09:33:45;;;;;;;14.98;11.00;;;;;;;-0.88;100.00;100744.44;5000897;28;20080;-77
2023/01/12 09:36:13;;;;;;;21.88;12.32;;;;;;;-0.20;100.00;100838.06;5003505;28;20050;-78
2023/01/12 09:38:41;;;;;;;22.23;12.00;;;;;;;-0.84;100.00;100764.41;5003445;28;20432;-78
2023/01/12 09:46:57;;;;;;;22.70;13.15;;;;;;;-0.52;100.00;100758.28;5008849;28;20857;-76
2023/01/12 09:47:49;;;;;;;35.05;18.17;;;;;;;-0.27;100.00;100809.38;5007827;28;20044;-76
2023/01/12 09:50:19;;;;;;;25.70;13.90;;;;;;;-0.23;100.00;100839.66;4998384;28;20041;-77
2023/01/12 09:52:56;;;;;;;22.30;14.32;;;;;;;-0.44;100.00;100782.75;5000544;28;20089;-77
2023/01/12 09:55:24;;;;;;;21.02;12.27;;;;;;;-1.02;100.00;100688.75;5016257;28;20116;-77
2023/01/12 09:58:27;;;;;;;24.75;14.55;;;;;;;-0.74;100.00;100688.47;5009503;28;20037;-77
2023/01/12 10:00:58;;;;;;;24.52;12.35;;;;;;;-0.34;100.00;100781.53;5009379;28;20049;-79
2023/01/12 10:03:37;;;;;;;39.35;18.10;;;;;;;0.05;100.00;100809.19;5005888;28;20077;-77
2023/01/12 10:06:04;;;;;;;29.92;16.17;;;;;;;-0.06;100.00;100800.94;5010047;28;20053;-77
2023/01/12 10:08:39;;;;;;;23.65;14.80;;;;;;;0.09;100.00;100799.06;5000656;28;20490;-77
2023/01/12 10:11:24;;;;;;;31.17;15.52;;;;;;;-0.72;100.00;100664.53;5003612;28;20057;-77
2023/01/12 10:13:50;;;;;;;29.70;13.70;;;;;;;0.11;100.00;100789.72;5000416;28;20053;-77
2023/01/12 10:16:49;;;;;;;21.17;12.70;;;;;;;0.15;100.00;100793.34;5002172;28;20402;-77
2023/01/12 10:19:42;;;;;;;22.83;12.60;;;;;;;-0.31;100.00;100673.38;5005808;28;20078;-76
2023/01/12 10:22:35;;;;;;;19.38;11.18;;;;;;;0.55;100.00;100779.75;5006101;28;20884;-78
2023/01/12 10:25:24;;;;;;;24.03;11.97;;;;;;;0.37;100.00;100785.78;5008161;28;20036;-78
2023/01/12 10:27:52;;;;;;;26.85;15.10;;;;;;;-0.25;100.00;100642.75;4998720;28;20348;-77
2023/01/12 10:30:38;;;;;;;20.95;10.95;;;;;;;-0.26;100.00;100656.47;5006745;28;20038;-76
2023/01/12 10:33:15;;;;;;;29.38;15.40;;;;;;;0.34;100.00;100744.38;5004522;28;20067;-76
2023/01/12 10:36:01;;;;;;;25.50;15.02;;;;;;;0.42;100.00;100770.53;5000917;28;20042;-77
2023/01/12 10:38:36;;;;;;;15.27;10.05;;;;;;;0.33;100.00;100767.53;5007718;28;20053;-74
2023/01/12 10:41:19;;;;;;;19.08;10.90;;;;;;;0.18;100.00;100727.28;5007412;28;20422;-74
2023/01/12 10:44:12;;;;;;;18.73;11.27;;;;;;;0.43;100.00;100749.06;5004233;28;20065;-76
2023/01/12 10:46:37;;;;;;;23.52;12.45;;;;;;;0.29;100.00;100726.91;5018286;28;20378;-75
2023/01/12 10:49:17;;;;;;;25.52;13.68;;;;;;;0.26;100.00;100740.56;5006259;28;20034;-74
2023/01/12 10:51:58;;;;;;;26.08;9.68;;;;;;;0.24;100.00;100737.03;5008753;28;20045;-76
2023/01/12 10:54:25;;;;;;;16.40;10.40;;;;;;;0.07;100.00;100717.25;5010860;28;20056;-76
2023/01/12 10:57:04;;;;;;;13.48;8.50;;;;;;;0.24;100.00;100744.75;5003638;28;20064;-76
2023/01/12 10:59:34;;;;;;;16.75;8.98;;;;;;;-0.33;100.00;100636.34;4996056;28;20642;-76
2023/01/12 11:02:10;;;;;;;16.80;8.40;;;;;;;0.27;100.00;100749.19;5009490;28;20144;-82
2023/01/12 11:04:41;;;;;;;24.80;11.70;;;;;;;0.26;100.00;100739.66;5008910;28;20083;-79
2023/01/12 11:07:12;;;;;;;20.67;11.15;;;;;;;0.41;100.00;100722.31;5011907;28;20091;-80
2023/01/12 11:09:39;;;;;;;19.08;11.63;;;;;;;0.35;100.00;100729.75;4997754;28;20037;-79
2023/01/12 11:12:30;;;;;;;19.83;10.88;;;;;;;0.65;100.00;100722.53;5003706;28;20105;-80
2023/01/12 11:15:14;;;;;;;20.40;11.38;;;;;;;0.61;100.00;100715.47;5003062;28;20103;-80
2023/01/12 11:17:58;;;;;;;19.75;12.73;;;;;;;0.71;100.00;100730.56;5002838;28;20050;-80
2023/01/12 11:20:29;;;;;;;34.95;17.08;;;;;;;0.62;100.00;100722.41;5005491;28;20603;-80
2023/01/12 11:23:00;;;;;;;23.85;11.70;;;;;;;0.62;100.00;100712.94;5013470;28;20046;-81
2023/01/12 11:25:30;;;;;;;20.42;12.82;;;;;;;-0.13;100.00;100611.47;5012368;28;20052;-80
2023/01/12 11:28:19;;;;;;;14.00;10.13;;;;;;;0.52;100.00;100723.69;5009236;28;20033;-79
2023/01/12 11:30:57;;;;;;;16.67;10.82;;;;;;;-0.19;100.00;100562.19;5010193;28;20112;-80
2023/01/12 11:33:28;;;;;;;16.27;10.93;;;;;;;0.57;100.00;100722.19;5005881;28;20046;-86
2023/01/12 11:36:26;;;;;;;31.63;11.73;;;;;;;0.74;100.00;100710.03;4999547;28;20053;-85
2023/01/12 11:39:05;;;;;;;19.73;11.07;;;;;;;-0.16;100.00;100587.28;4996252;28;20049;-83
2023/01/12 11:41:40;;;;;;;18.23;10.90;;;;;;;0.65;100.00;100725.09;5007754;28;20093;-85
2023/01/12 11:44:21;;;;;;;18.92;11.18;;;;;;;0.52;100.00;100682.38;5006335;28;20045;-85
2023/01/12 11:46:52;;;;;;;24.02;14.45;;;;;;;0.39;100.00;100709.31;5009995;28;20046;-84
2023/01/12 11:49:46;;;;;;;14.93;10.25;;;;;;;0.63;100.00;100743.13;5007218;28;20060;-82
2023/01/12 11:52:14;;;;;;;21.00;11.80;;;;;;;0.58;100.00;100721.34;5006497;28;20045;-83